sensor_id;sensor_type;location;lat;lon;timestamp;temperature;humidity
7822;DHT22;3956;50.558;9.678;2022-10-17T00:02:14;12.10;1.00
7822;DHT22;3956;50.558;9.678;2022-10-17T00:04:42;12.10;1.00
7822;DHT22;3956;50.558;9.678;2022-10-17T00:07:10;12.10;27.20
7822;DHT22;3956;50.558;9.678;2022-10-17T00:09:42;12.00;1.00
7822;DHT22;3956;50.558;9.678;2022-10-17T00:12:11;11.80;1.00
7822;DHT22;3956;50.558;9.678;2022-10-17T00:14:39;11.80;1.00
7822;DHT22;3956;50.558;9.678;2022-10-17T00:17:07;11.80;1.00
7822;DHT22;3956;50.558;9.678;2022-10-17T00:19:36;11.90;1.00
7822;DHT22;3956;50.558;9.678;2022-10-17T00:22:04;11.90;1.00
7822;DHT22;3956;50.558;9.678;2022-10-17T00:24:32;11.90;1.00
7822;DHT22;3956;50.558;9.678;2022-10-17T00:27:02;11.80;1.00
7822;DHT22;3956;50.558;9.678;2022-10-17T00:29:30;11.90;1.00
7822;DHT22;3956;50.558;9.678;2022-10-17T00:31:58;11.90;1.00
7822;DHT22;3956;50.558;9.678;2022-10-17T00:34:28;11.90;1.00
7822;DHT22;3956;50.558;9.678;2022-10-17T00:36:57;11.90;1.00
7822;DHT22;3956;50.558;9.678;2022-10-17T00:39:25;11.90;1.00
7822;DHT22;3956;50.558;9.678;2022-10-17T00:41:53;11.90;1.00
7822;DHT22;3956;50.558;9.678;2022-10-17T00:45:03;11.90;1.00
7822;DHT22;3956;50.558;9.678;2022-10-17T00:47:32;11.90;1.00
7822;DHT22;3956;50.558;9.678;2022-10-17T00:50:03;11.80;1.00
7822;DHT22;3956;50.558;9.678;2022-10-17T00:52:32;11.80;1.00
7822;DHT22;3956;50.558;9.678;2022-10-17T00:55:04;11.80;1.00
7822;DHT22;3956;50.558;9.678;2022-10-17T00:57:35;11.80;1.00
7822;DHT22;3956;50.558;9.678;2022-10-17T01:00:08;11.80;26.30
7822;DHT22;3956;50.558;9.678;2022-10-17T01:02:37;11.90;83.40
7822;DHT22;3956;50.558;9.678;2022-10-17T01:05:07;12.10;1.00
7822;DHT22;3956;50.558;9.678;2022-10-17T01:07:36;12.10;99.90
7822;DHT22;3956;50.558;9.678;2022-10-17T01:10:06;12.20;74.60
7822;DHT22;3956;50.558;9.678;2022-10-17T01:12:49;12.20;1.00
7822;DHT22;3956;50.558;9.678;2022-10-17T01:15:28;12.20;1.00
7822;DHT22;3956;50.558;9.678;2022-10-17T01:18:09;12.20;1.00
7822;DHT22;3956;50.558;9.678;2022-10-17T01:21:10;12.10;1.00
7822;DHT22;3956;50.558;9.678;2022-10-17T01:29:59;12.10;1.00
7822;DHT22;3956;50.558;9.678;2022-10-17T01:32:34;12.10;58.60
7822;DHT22;3956;50.558;9.678;2022-10-17T01:35:09;12.10;1.00
7822;DHT22;3956;50.558;9.678;2022-10-17T01:37:44;12.00;1.00
7822;DHT22;3956;50.558;9.678;2022-10-17T01:40:19;12.10;24.00
7822;DHT22;3956;50.558;9.678;2022-10-17T01:42:56;12.10;64.70
7822;DHT22;3956;50.558;9.678;2022-10-17T01:45:28;12.10;99.90
7822;DHT22;3956;50.558;9.678;2022-10-17T01:48:04;12.10;1.00
7822;DHT22;3956;50.558;9.678;2022-10-17T01:50:38;12.40;99.90
7822;DHT22;3956;50.558;9.678;2022-10-17T01:53:13;12.40;1.00
7822;DHT22;3956;50.558;9.678;2022-10-17T01:55:44;12.60;1.00
7822;DHT22;3956;50.558;9.678;2022-10-17T01:58:18;12.60;99.90
7822;DHT22;3956;50.558;9.678;2022-10-17T02:00:48;12.90;1.00
7822;DHT22;3956;50.558;9.678;2022-10-17T02:03:19;12.60;1.00
7822;DHT22;3956;50.558;9.678;2022-10-17T02:05:48;12.50;53.10
7822;DHT22;3956;50.558;9.678;2022-10-17T02:08:25;12.40;99.90
7822;DHT22;3956;50.558;9.678;2022-10-17T02:10:57;12.30;99.90
7822;DHT22;3956;50.558;9.678;2022-10-17T02:13:37;12.40;99.90
7822;DHT22;3956;50.558;9.678;2022-10-17T02:16:23;12.30;99.90
7822;DHT22;3956;50.558;9.678;2022-10-17T02:19:21;12.20;99.90
7822;DHT22;3956;50.558;9.678;2022-10-17T02:22:04;12.30;1.00
7822;DHT22;3956;50.558;9.678;2022-10-17T02:24:40;12.20;1.00
7822;DHT22;3956;50.558;9.678;2022-10-17T02:27:15;12.20;1.00
7822;DHT22;3956;50.558;9.678;2022-10-17T02:29:47;12.20;1.00
7822;DHT22;3956;50.558;9.678;2022-10-17T02:32:20;12.20;1.00
7822;DHT22;3956;50.558;9.678;2022-10-17T02:34:55;12.20;1.00
7822;DHT22;3956;50.558;9.678;2022-10-17T02:37:32;12.30;93.00
7822;DHT22;3956;50.558;9.678;2022-10-17T02:40:01;12.30;20.20
7822;DHT22;3956;50.558;9.678;2022-10-17T02:42:31;12.30;99.90
7822;DHT22;3956;50.558;9.678;2022-10-17T02:45:00;12.40;99.90
7822;DHT22;3956;50.558;9.678;2022-10-17T02:47:33;12.30;1.00
7822;DHT22;3956;50.558;9.678;2022-10-17T02:50:05;12.40;97.60
7822;DHT22;3956;50.558;9.678;2022-10-17T02:52:37;12.30;1.00
7822;DHT22;3956;50.558;9.678;2022-10-17T02:55:16;12.30;1.00
7822;DHT22;3956;50.558;9.678;2022-10-17T02:58:34;12.20;1.00
7822;DHT22;3956;50.558;9.678;2022-10-17T03:01:08;12.10;1.00
7822;DHT22;3956;50.558;9.678;2022-10-17T03:03:37;12.10;1.00
7822;DHT22;3956;50.558;9.678;2022-10-17T03:06:06;12.10;1.00
7822;DHT22;3956;50.558;9.678;2022-10-17T03:08:34;12.10;1.00
7822;DHT22;3956;50.558;9.678;2022-10-17T03:11:04;12.00;32.00
7822;DHT22;3956;50.558;9.678;2022-10-17T03:13:32;12.00;1.00
7822;DHT22;3956;50.558;9.678;2022-10-17T03:16:07;12.00;1.00
7822;DHT22;3956;50.558;9.678;2022-10-17T03:18:35;12.10;32.10
7822;DHT22;3956;50.558;9.678;2022-10-17T03:21:05;12.10;30.80
7822;DHT22;3956;50.558;9.678;2022-10-17T03:23:34;12.10;1.00
7822;DHT22;3956;50.558;9.678;2022-10-17T03:26:02;12.10;72.70
7822;DHT22;3956;50.558;9.678;2022-10-17T03:28:31;12.10;6.50
7822;DHT22;3956;50.558;9.678;2022-10-17T03:31:05;12.00;1.00
7822;DHT22;3956;50.558;9.678;2022-10-17T03:33:36;12.00;1.00
7822;DHT22;3956;50.558;9.678;2022-10-17T03:36:14;12.00;1.00
7822;DHT22;3956;50.558;9.678;2022-10-17T03:38:45;12.00;1.00
7822;DHT22;3956;50.558;9.678;2022-10-17T03:41:22;12.00;1.00
7822;DHT22;3956;50.558;9.678;2022-10-17T03:43:59;12.00;1.00
7822;DHT22;3956;50.558;9.678;2022-10-17T03:46:32;12.00;1.00
7822;DHT22;3956;50.558;9.678;2022-10-17T03:49:00;12.00;1.00
7822;DHT22;3956;50.558;9.678;2022-10-17T03:51:32;12.00;1.00
7822;DHT22;3956;50.558;9.678;2022-10-17T03:54:01;11.90;1.00
7822;DHT22;3956;50.558;9.678;2022-10-17T03:56:29;11.90;1.00
7822;DHT22;3956;50.558;9.678;2022-10-17T03:58:57;11.90;1.00
7822;DHT22;3956;50.558;9.678;2022-10-17T04:01:29;11.90;1.00
7822;DHT22;3956;50.558;9.678;2022-10-17T04:10:57;11.80;1.00
7822;DHT22;3956;50.558;9.678;2022-10-17T04:13:36;11.80;99.90
7822;DHT22;3956;50.558;9.678;2022-10-17T04:16:34;11.80;99.90
7822;DHT22;3956;50.558;9.678;2022-10-17T04:19:02;11.80;99.90
7822;DHT22;3956;50.558;9.678;2022-10-17T04:21:31;11.80;99.90
7822;DHT22;3956;50.558;9.678;2022-10-17T04:24:01;11.90;69.20
7822;DHT22;3956;50.558;9.678;2022-10-17T04:30:32;12.10;1.00
7822;DHT22;3956;50.558;9.678;2022-10-17T04:33:59;12.40;1.00
7822;DHT22;3956;50.558;9.678;2022-10-17T04:37:20;12.70;1.00
7822;DHT22;3956;50.558;9.678;2022-10-17T04:40:30;12.70;99.90
7822;DHT22;3956;50.558;9.678;2022-10-17T04:43:32;12.80;1.00
7822;DHT22;3956;50.558;9.678;2022-10-17T04:51:49;12.60;99.90
7822;DHT22;3956;50.558;9.678;2022-10-17T04:54:18;12.50;99.90
7822;DHT22;3956;50.558;9.678;2022-10-17T04:56:46;12.40;1.00
7822;DHT22;3956;50.558;9.678;2022-10-17T04:59:14;12.40;1.00
7822;DHT22;3956;50.558;9.678;2022-10-17T05:01:42;12.40;1.00
7822;DHT22;3956;50.558;9.678;2022-10-17T05:04:11;12.50;1.00
7822;DHT22;3956;50.558;9.678;2022-10-17T05:06:39;12.50;1.00
7822;DHT22;3956;50.558;9.678;2022-10-17T05:09:12;12.60;1.00
7822;DHT22;3956;50.558;9.678;2022-10-17T05:11:41;12.70;1.00
7822;DHT22;3956;50.558;9.678;2022-10-17T05:14:11;12.70;99.90
7822;DHT22;3956;50.558;9.678;2022-10-17T05:16:41;12.60;1.00
7822;DHT22;3956;50.558;9.678;2022-10-17T05:19:15;12.60;99.90
7822;DHT22;3956;50.558;9.678;2022-10-17T05:21:45;12.50;99.90
7822;DHT22;3956;50.558;9.678;2022-10-17T05:24:15;12.50;1.00
7822;DHT22;3956;50.558;9.678;2022-10-17T05:26:45;12.50;1.00
7822;DHT22;3956;50.558;9.678;2022-10-17T05:29:15;12.40;1.00
7822;DHT22;3956;50.558;9.678;2022-10-17T05:31:45;12.40;1.00
7822;DHT22;3956;50.558;9.678;2022-10-17T05:34:14;12.30;1.00
7822;DHT22;3956;50.558;9.678;2022-10-17T05:36:50;12.30;1.00
7822;DHT22;3956;50.558;9.678;2022-10-17T05:39:22;12.30;1.00
7822;DHT22;3956;50.558;9.678;2022-10-17T05:41:51;12.30;1.00
7822;DHT22;3956;50.558;9.678;2022-10-17T05:44:25;12.20;1.00
7822;DHT22;3956;50.558;9.678;2022-10-17T05:46:56;12.20;1.00
7822;DHT22;3956;50.558;9.678;2022-10-17T05:49:29;12.20;1.00
7822;DHT22;3956;50.558;9.678;2022-10-17T05:52:14;12.20;1.00
7822;DHT22;3956;50.558;9.678;2022-10-17T05:54:44;12.20;1.00
7822;DHT22;3956;50.558;9.678;2022-10-17T05:57:23;12.20;1.00
7822;DHT22;3956;50.558;9.678;2022-10-17T05:59:56;12.30;1.00
7822;DHT22;3956;50.558;9.678;2022-10-17T06:02:25;12.40;1.00
7822;DHT22;3956;50.558;9.678;2022-10-17T06:04:59;12.40;1.00
7822;DHT22;3956;50.558;9.678;2022-10-17T06:07:27;12.30;1.00
7822;DHT22;3956;50.558;9.678;2022-10-17T06:10:00;12.40;1.00
7822;DHT22;3956;50.558;9.678;2022-10-17T06:12:31;12.40;1.00
7822;DHT22;3956;50.558;9.678;2022-10-17T06:15:02;12.30;99.90
7822;DHT22;3956;50.558;9.678;2022-10-17T06:21:02;12.30;1.00
7822;DHT22;3956;50.558;9.678;2022-10-17T06:23:32;12.30;1.00
7822;DHT22;3956;50.558;9.678;2022-10-17T06:26:12;12.30;1.00
7822;DHT22;3956;50.558;9.678;2022-10-17T06:28:41;12.30;1.00
7822;DHT22;3956;50.558;9.678;2022-10-17T06:31:13;12.30;1.00
7822;DHT22;3956;50.558;9.678;2022-10-17T06:33:42;12.30;1.00
7822;DHT22;3956;50.558;9.678;2022-10-17T06:36:14;12.40;1.00
7822;DHT22;3956;50.558;9.678;2022-10-17T06:38:52;12.40;1.00
7822;DHT22;3956;50.558;9.678;2022-10-17T06:41:30;12.50;1.00
7822;DHT22;3956;50.558;9.678;2022-10-17T06:44:03;12.50;99.90
7822;DHT22;3956;50.558;9.678;2022-10-17T06:47:14;12.60;99.90
7822;DHT22;3956;50.558;9.678;2022-10-17T06:49:50;12.70;99.90
7822;DHT22;3956;50.558;9.678;2022-10-17T06:52:45;12.90;99.90
7822;DHT22;3956;50.558;9.678;2022-10-17T06:56:04;13.00;36.90
7822;DHT22;3956;50.558;9.678;2022-10-17T06:58:36;13.10;1.00
7822;DHT22;3956;50.558;9.678;2022-10-17T07:01:07;13.20;1.00
7822;DHT22;3956;50.558;9.678;2022-10-17T07:03:36;13.40;1.00
7822;DHT22;3956;50.558;9.678;2022-10-17T07:06:15;13.60;1.00
7822;DHT22;3956;50.558;9.678;2022-10-17T07:08:44;14.80;99.90
7822;DHT22;3956;50.558;9.678;2022-10-17T07:11:14;17.70;1.00
7822;DHT22;3956;50.558;9.678;2022-10-17T07:13:45;19.00;99.90
7822;DHT22;3956;50.558;9.678;2022-10-17T07:16:15;19.80;99.90
7822;DHT22;3956;50.558;9.678;2022-10-17T07:18:57;19.90;99.90
7822;DHT22;3956;50.558;9.678;2022-10-17T07:22:21;20.90;99.90
7822;DHT22;3956;50.558;9.678;2022-10-17T07:25:26;22.60;99.90
7822;DHT22;3956;50.558;9.678;2022-10-17T07:27:59;23.00;99.90
7822;DHT22;3956;50.558;9.678;2022-10-17T07:30:29;23.30;99.90
7822;DHT22;3956;50.558;9.678;2022-10-17T07:33:33;23.10;99.90
7822;DHT22;3956;50.558;9.678;2022-10-17T07:36:32;22.80;99.90
7822;DHT22;3956;50.558;9.678;2022-10-17T07:39:00;24.40;99.90
7822;DHT22;3956;50.558;9.678;2022-10-17T07:41:29;24.20;99.90
7822;DHT22;3956;50.558;9.678;2022-10-17T07:44:02;25.00;99.90
7822;DHT22;3956;50.558;9.678;2022-10-17T07:46:32;26.00;1.00
7822;DHT22;3956;50.558;9.678;2022-10-17T07:49:00;25.50;1.00
7822;DHT22;3956;50.558;9.678;2022-10-17T07:51:29;26.20;1.00
7822;DHT22;3956;50.558;9.678;2022-10-17T07:54:01;25.60;1.00
7822;DHT22;3956;50.558;9.678;2022-10-17T07:56:37;24.80;1.00
7822;DHT22;3956;50.558;9.678;2022-10-17T07:59:09;23.50;1.00
7822;DHT22;3956;50.558;9.678;2022-10-17T08:01:41;24.50;1.00
7822;DHT22;3956;50.558;9.678;2022-10-17T08:04:11;25.50;1.00
7822;DHT22;3956;50.558;9.678;2022-10-17T08:06:39;24.90;1.00
7822;DHT22;3956;50.558;9.678;2022-10-17T08:09:08;24.80;1.00
7822;DHT22;3956;50.558;9.678;2022-10-17T08:12:06;25.90;1.00
7822;DHT22;3956;50.558;9.678;2022-10-17T08:14:38;26.50;1.00
7822;DHT22;3956;50.558;9.678;2022-10-17T08:17:08;26.30;1.00
7822;DHT22;3956;50.558;9.678;2022-10-17T08:19:40;26.80;1.00
7822;DHT22;3956;50.558;9.678;2022-10-17T08:22:16;27.20;1.00
7822;DHT22;3956;50.558;9.678;2022-10-17T08:24:50;26.70;1.00
7822;DHT22;3956;50.558;9.678;2022-10-17T08:49:19;26.50;1.00
7822;DHT22;3956;50.558;9.678;2022-10-17T08:51:57;20.20;1.00
7822;DHT22;3956;50.558;9.678;2022-10-17T08:54:34;19.90;1.00
7822;DHT22;3956;50.558;9.678;2022-10-17T08:57:12;19.80;1.00
7822;DHT22;3956;50.558;9.678;2022-10-17T08:59:44;19.60;1.00
7822;DHT22;3956;50.558;9.678;2022-10-17T09:12:16;19.80;1.00
7822;DHT22;3956;50.558;9.678;2022-10-17T09:15:08;20.00;1.00
7822;DHT22;3956;50.558;9.678;2022-10-17T09:17:46;20.00;1.00
7822;DHT22;3956;50.558;9.678;2022-10-17T09:20:20;20.00;1.00
7822;DHT22;3956;50.558;9.678;2022-10-17T09:22:54;20.20;1.00
7822;DHT22;3956;50.558;9.678;2022-10-17T09:25:25;20.30;1.00
7822;DHT22;3956;50.558;9.678;2022-10-17T09:28:03;20.40;99.90
7822;DHT22;3956;50.558;9.678;2022-10-17T09:30:41;20.60;99.90
7822;DHT22;3956;50.558;9.678;2022-10-17T09:33:13;20.70;99.90
7822;DHT22;3956;50.558;9.678;2022-10-17T09:36:08;20.80;99.90
7822;DHT22;3956;50.558;9.678;2022-10-17T09:38:43;20.70;99.90
7822;DHT22;3956;50.558;9.678;2022-10-17T09:44:29;20.60;99.90
7822;DHT22;3956;50.558;9.678;2022-10-17T09:47:17;20.60;99.90
7822;DHT22;3956;50.558;9.678;2022-10-17T09:53:21;20.60;99.90
7822;DHT22;3956;50.558;9.678;2022-10-17T09:56:24;20.70;99.90
7822;DHT22;3956;50.558;9.678;2022-10-17T09:59:03;20.70;99.90
7822;DHT22;3956;50.558;9.678;2022-10-17T10:02:20;20.90;99.90
7822;DHT22;3956;50.558;9.678;2022-10-17T10:05:22;21.00;99.90
7822;DHT22;3956;50.558;9.678;2022-10-17T10:08:02;20.90;99.90
7822;DHT22;3956;50.558;9.678;2022-10-17T10:10:33;21.00;99.90
7822;DHT22;3956;50.558;9.678;2022-10-17T10:13:17;21.10;99.90
7822;DHT22;3956;50.558;9.678;2022-10-17T10:15:55;21.20;99.90
7822;DHT22;3956;50.558;9.678;2022-10-17T10:18:48;21.10;99.90
7822;DHT22;3956;50.558;9.678;2022-10-17T10:21:24;21.10;1.00
7822;DHT22;3956;50.558;9.678;2022-10-17T10:24:16;21.20;99.90
7822;DHT22;3956;50.558;9.678;2022-10-17T10:27:12;21.00;99.90
7822;DHT22;3956;50.558;9.678;2022-10-17T10:30:03;21.10;99.90
7822;DHT22;3956;50.558;9.678;2022-10-17T10:32:37;21.10;99.90
7822;DHT22;3956;50.558;9.678;2022-10-17T10:35:22;21.20;99.90
7822;DHT22;3956;50.558;9.678;2022-10-17T10:37:58;21.00;99.90
7822;DHT22;3956;50.558;9.678;2022-10-17T10:40:35;20.90;99.90
7822;DHT22;3956;50.558;9.678;2022-10-17T10:43:05;20.90;99.90
7822;DHT22;3956;50.558;9.678;2022-10-17T10:45:42;21.00;99.90
7822;DHT22;3956;50.558;9.678;2022-10-17T10:48:19;21.10;99.90
7822;DHT22;3956;50.558;9.678;2022-10-17T10:50:56;20.90;99.90
7822;DHT22;3956;50.558;9.678;2022-10-17T10:53:37;21.10;99.90
7822;DHT22;3956;50.558;9.678;2022-10-17T10:56:33;21.30;99.90
7822;DHT22;3956;50.558;9.678;2022-10-17T10:59:29;21.30;99.90
7822;DHT22;3956;50.558;9.678;2022-10-17T11:02:56;21.10;99.90
7822;DHT22;3956;50.558;9.678;2022-10-17T11:06:12;21.10;99.90
7822;DHT22;3956;50.558;9.678;2022-10-17T11:08:47;21.20;99.90
7822;DHT22;3956;50.558;9.678;2022-10-17T11:11:36;21.20;99.90
7822;DHT22;3956;50.558;9.678;2022-10-17T11:14:39;21.30;99.90
7822;DHT22;3956;50.558;9.678;2022-10-17T11:17:42;21.60;99.90
7822;DHT22;3956;50.558;9.678;2022-10-17T11:20:21;21.50;99.90
7822;DHT22;3956;50.558;9.678;2022-10-17T11:22:55;21.50;99.90
7822;DHT22;3956;50.558;9.678;2022-10-17T11:25:34;21.60;99.90
7822;DHT22;3956;50.558;9.678;2022-10-17T11:28:14;21.60;99.90
7822;DHT22;3956;50.558;9.678;2022-10-17T11:31:27;21.60;99.90
7822;DHT22;3956;50.558;9.678;2022-10-17T11:34:35;21.70;99.90
7822;DHT22;3956;50.558;9.678;2022-10-17T11:37:27;22.10;99.90
7822;DHT22;3956;50.558;9.678;2022-10-17T11:40:04;21.90;99.90
7822;DHT22;3956;50.558;9.678;2022-10-17T11:43:00;22.00;99.90
7822;DHT22;3956;50.558;9.678;2022-10-17T11:45:58;21.90;99.90
7822;DHT22;3956;50.558;9.678;2022-10-17T11:48:57;21.80;99.90
7822;DHT22;3956;50.558;9.678;2022-10-17T11:51:40;21.90;99.90
7822;DHT22;3956;50.558;9.678;2022-10-17T11:54:40;21.80;99.90
7822;DHT22;3956;50.558;9.678;2022-10-17T11:57:26;22.00;99.90
7822;DHT22;3956;50.558;9.678;2022-10-17T12:00:47;21.70;99.90
7822;DHT22;3956;50.558;9.678;2022-10-17T12:03:38;22.00;99.90
7822;DHT22;3956;50.558;9.678;2022-10-17T12:06:33;22.20;99.90
7822;DHT22;3956;50.558;9.678;2022-10-17T12:09:33;22.00;99.90
7822;DHT22;3956;50.558;9.678;2022-10-17T12:12:33;22.30;99.90
7822;DHT22;3956;50.558;9.678;2022-10-17T12:15:30;22.60;99.90
7822;DHT22;3956;50.558;9.678;2022-10-17T12:18:26;22.60;99.90
7822;DHT22;3956;50.558;9.678;2022-10-17T12:20:57;22.20;99.90
7822;DHT22;3956;50.558;9.678;2022-10-17T12:23:55;22.20;99.90
7822;DHT22;3956;50.558;9.678;2022-10-17T12:26:53;22.00;99.90
7822;DHT22;3956;50.558;9.678;2022-10-17T12:29:36;22.00;99.90
7822;DHT22;3956;50.558;9.678;2022-10-17T12:32:10;22.10;99.90
7822;DHT22;3956;50.558;9.678;2022-10-17T12:34:51;22.20;99.90
7822;DHT22;3956;50.558;9.678;2022-10-17T12:38:00;22.10;99.90
7822;DHT22;3956;50.558;9.678;2022-10-17T12:44:35;22.00;99.90
7822;DHT22;3956;50.558;9.678;2022-10-17T12:47:43;22.10;99.90
7822;DHT22;3956;50.558;9.678;2022-10-17T12:51:01;22.20;99.90
7822;DHT22;3956;50.558;9.678;2022-10-17T12:54:00;22.20;99.90
7822;DHT22;3956;50.558;9.678;2022-10-17T12:56:52;22.30;99.90
7822;DHT22;3956;50.558;9.678;2022-10-17T12:59:41;22.30;99.90
7822;DHT22;3956;50.558;9.678;2022-10-17T13:02:39;22.30;99.90
7822;DHT22;3956;50.558;9.678;2022-10-17T13:05:36;22.30;99.90
7822;DHT22;3956;50.558;9.678;2022-10-17T13:08:20;22.30;99.90
7822;DHT22;3956;50.558;9.678;2022-10-17T13:10:56;22.40;99.90
7822;DHT22;3956;50.558;9.678;2022-10-17T13:13:44;22.40;99.90
7822;DHT22;3956;50.558;9.678;2022-10-17T13:16:54;22.60;99.90
7822;DHT22;3956;50.558;9.678;2022-10-17T13:20:24;22.70;99.90
7822;DHT22;3956;50.558;9.678;2022-10-17T13:23:45;22.60;99.90
7822;DHT22;3956;50.558;9.678;2022-10-17T13:26:32;22.70;99.90
7822;DHT22;3956;50.558;9.678;2022-10-17T13:29:11;22.70;99.90
7822;DHT22;3956;50.558;9.678;2022-10-17T13:31:40;22.50;99.90
7822;DHT22;3956;50.558;9.678;2022-10-17T13:34:15;22.60;99.90
7822;DHT22;3956;50.558;9.678;2022-10-17T13:36:48;22.70;99.90
7822;DHT22;3956;50.558;9.678;2022-10-17T13:39:45;22.60;99.90
7822;DHT22;3956;50.558;9.678;2022-10-17T13:43:09;22.60;99.90
7822;DHT22;3956;50.558;9.678;2022-10-17T13:46:21;22.80;99.90
7822;DHT22;3956;50.558;9.678;2022-10-17T13:49:14;22.80;99.90
7822;DHT22;3956;50.558;9.678;2022-10-17T13:51:57;22.70;99.90
7822;DHT22;3956;50.558;9.678;2022-10-17T13:55:11;22.60;99.90
7822;DHT22;3956;50.558;9.678;2022-10-17T13:58:18;22.50;99.90
7822;DHT22;3956;50.558;9.678;2022-10-17T14:01:04;22.50;99.90
7822;DHT22;3956;50.558;9.678;2022-10-17T14:04:23;22.50;99.90
7822;DHT22;3956;50.558;9.678;2022-10-17T14:08:01;22.40;99.90
7822;DHT22;3956;50.558;9.678;2022-10-17T14:11:23;22.50;99.90
7822;DHT22;3956;50.558;9.678;2022-10-17T14:13:57;22.40;99.90
7822;DHT22;3956;50.558;9.678;2022-10-17T14:16:33;22.30;99.90
7822;DHT22;3956;50.558;9.678;2022-10-17T14:19:13;22.20;99.90
7822;DHT22;3956;50.558;9.678;2022-10-17T14:21:48;22.20;99.90
7822;DHT22;3956;50.558;9.678;2022-10-17T14:24:35;22.10;99.90
7822;DHT22;3956;50.558;9.678;2022-10-17T14:27:50;22.20;99.90
7822;DHT22;3956;50.558;9.678;2022-10-17T14:30:33;22.20;99.90
7822;DHT22;3956;50.558;9.678;2022-10-17T14:33:26;22.20;99.90
7822;DHT22;3956;50.558;9.678;2022-10-17T14:36:18;22.10;99.90
7822;DHT22;3956;50.558;9.678;2022-10-17T14:38:53;22.10;99.90
7822;DHT22;3956;50.558;9.678;2022-10-17T14:41:31;22.00;99.90
7822;DHT22;3956;50.558;9.678;2022-10-17T14:44:20;22.10;99.90
7822;DHT22;3956;50.558;9.678;2022-10-17T14:46:57;22.10;99.90
7822;DHT22;3956;50.558;9.678;2022-10-17T14:49:39;22.00;99.90
7822;DHT22;3956;50.558;9.678;2022-10-17T14:52:30;22.00;99.90
7822;DHT22;3956;50.558;9.678;2022-10-17T14:55:18;22.00;99.90
7822;DHT22;3956;50.558;9.678;2022-10-17T14:57:48;22.00;99.90
7822;DHT22;3956;50.558;9.678;2022-10-17T15:00:38;21.80;99.90
7822;DHT22;3956;50.558;9.678;2022-10-17T15:03:38;21.80;99.90
7822;DHT22;3956;50.558;9.678;2022-10-17T15:06:16;21.70;99.90
7822;DHT22;3956;50.558;9.678;2022-10-17T15:08:45;21.70;99.90
7822;DHT22;3956;50.558;9.678;2022-10-17T15:11:17;21.70;99.90
7822;DHT22;3956;50.558;9.678;2022-10-17T15:13:46;21.50;99.90
7822;DHT22;3956;50.558;9.678;2022-10-17T15:16:22;21.40;99.90
7822;DHT22;3956;50.558;9.678;2022-10-17T15:18:54;21.40;99.90
7822;DHT22;3956;50.558;9.678;2022-10-17T15:21:25;21.40;99.90
7822;DHT22;3956;50.558;9.678;2022-10-17T15:24:09;21.40;99.90
7822;DHT22;3956;50.558;9.678;2022-10-17T15:27:08;21.30;99.90
7822;DHT22;3956;50.558;9.678;2022-10-17T15:30:25;21.20;99.90
7822;DHT22;3956;50.558;9.678;2022-10-17T15:32:58;21.10;99.90
7822;DHT22;3956;50.558;9.678;2022-10-17T15:35:27;21.10;99.90
7822;DHT22;3956;50.558;9.678;2022-10-17T15:37:56;21.00;99.90
7822;DHT22;3956;50.558;9.678;2022-10-17T15:40:27;21.00;99.90
7822;DHT22;3956;50.558;9.678;2022-10-17T15:42:59;20.80;99.90
7822;DHT22;3956;50.558;9.678;2022-10-17T15:45:38;20.80;99.90
7822;DHT22;3956;50.558;9.678;2022-10-17T15:52:09;20.50;99.90
7822;DHT22;3956;50.558;9.678;2022-10-17T15:54:39;20.30;99.90
7822;DHT22;3956;50.558;9.678;2022-10-17T15:57:13;20.20;99.90
7822;DHT22;3956;50.558;9.678;2022-10-17T15:59:43;20.40;99.90
7822;DHT22;3956;50.558;9.678;2022-10-17T16:02:16;20.30;99.90
7822;DHT22;3956;50.558;9.678;2022-10-17T16:04:47;20.30;99.90
7822;DHT22;3956;50.558;9.678;2022-10-17T16:07:31;20.20;99.90
7822;DHT22;3956;50.558;9.678;2022-10-17T16:10:45;20.00;99.90
7822;DHT22;3956;50.558;9.678;2022-10-17T16:13:42;20.00;99.90
7822;DHT22;3956;50.558;9.678;2022-10-17T16:16:35;19.90;99.90
7822;DHT22;3956;50.558;9.678;2022-10-17T16:19:58;19.80;99.90
7822;DHT22;3956;50.558;9.678;2022-10-17T16:23:25;19.80;99.90
7822;DHT22;3956;50.558;9.678;2022-10-17T16:25:59;19.60;99.90
7822;DHT22;3956;50.558;9.678;2022-10-17T16:28:33;19.50;99.90
7822;DHT22;3956;50.558;9.678;2022-10-17T16:31:14;19.30;99.90
7822;DHT22;3956;50.558;9.678;2022-10-17T16:33:45;19.30;99.90
7822;DHT22;3956;50.558;9.678;2022-10-17T16:36:14;19.20;99.90
7822;DHT22;3956;50.558;9.678;2022-10-17T16:38:47;19.20;99.90
7822;DHT22;3956;50.558;9.678;2022-10-17T16:41:51;19.00;99.90
7822;DHT22;3956;50.558;9.678;2022-10-17T16:44:24;18.90;99.90
7822;DHT22;3956;50.558;9.678;2022-10-17T16:46:56;18.90;99.90
7822;DHT22;3956;50.558;9.678;2022-10-17T16:50:09;18.80;99.90
7822;DHT22;3956;50.558;9.678;2022-10-17T16:53:27;18.70;99.90
7822;DHT22;3956;50.558;9.678;2022-10-17T16:56:00;18.70;99.90
7822;DHT22;3956;50.558;9.678;2022-10-17T16:58:35;18.60;99.90
7822;DHT22;3956;50.558;9.678;2022-10-17T17:01:06;18.50;99.90
7822;DHT22;3956;50.558;9.678;2022-10-17T17:03:41;18.40;99.90
7822;DHT22;3956;50.558;9.678;2022-10-17T17:06:46;18.40;99.90
7822;DHT22;3956;50.558;9.678;2022-10-17T17:09:54;18.50;99.90
7822;DHT22;3956;50.558;9.678;2022-10-17T17:13:08;18.40;99.90
7822;DHT22;3956;50.558;9.678;2022-10-17T17:16:26;18.30;99.90
7822;DHT22;3956;50.558;9.678;2022-10-17T17:19:26;18.20;99.90
7822;DHT22;3956;50.558;9.678;2022-10-17T17:21:54;18.00;99.90
7822;DHT22;3956;50.558;9.678;2022-10-17T17:24:23;18.00;99.90
7822;DHT22;3956;50.558;9.678;2022-10-17T17:26:55;17.90;99.90
7822;DHT22;3956;50.558;9.678;2022-10-17T17:29:26;17.80;99.90
7822;DHT22;3956;50.558;9.678;2022-10-17T17:31:54;17.70;99.90
7822;DHT22;3956;50.558;9.678;2022-10-17T17:34:23;17.60;99.90
7822;DHT22;3956;50.558;9.678;2022-10-17T17:36:55;17.60;99.90
7822;DHT22;3956;50.558;9.678;2022-10-17T17:39:26;17.60;99.90
7822;DHT22;3956;50.558;9.678;2022-10-17T17:42:19;17.60;99.90
7822;DHT22;3956;50.558;9.678;2022-10-17T17:44:54;17.50;99.90
7822;DHT22;3956;50.558;9.678;2022-10-17T17:47:27;17.50;99.90
7822;DHT22;3956;50.558;9.678;2022-10-17T17:50:02;17.40;99.90
7822;DHT22;3956;50.558;9.678;2022-10-17T17:52:30;17.30;99.90
7822;DHT22;3956;50.558;9.678;2022-10-17T17:55:01;17.20;1.00
7822;DHT22;3956;50.558;9.678;2022-10-17T17:57:31;17.10;1.00
7822;DHT22;3956;50.558;9.678;2022-10-17T18:00:09;17.10;1.00
7822;DHT22;3956;50.558;9.678;2022-10-17T18:02:46;17.00;1.00
7822;DHT22;3956;50.558;9.678;2022-10-17T18:05:28;17.00;1.00
7822;DHT22;3956;50.558;9.678;2022-10-17T18:07:58;16.90;1.00
7822;DHT22;3956;50.558;9.678;2022-10-17T18:10:29;16.90;1.00
7822;DHT22;3956;50.558;9.678;2022-10-17T18:13:14;17.00;1.00
7822;DHT22;3956;50.558;9.678;2022-10-17T18:16:14;16.90;1.00
7822;DHT22;3956;50.558;9.678;2022-10-17T18:18:44;16.90;1.00
7822;DHT22;3956;50.558;9.678;2022-10-17T18:21:18;16.80;1.00
7822;DHT22;3956;50.558;9.678;2022-10-17T18:23:49;16.70;1.00
7822;DHT22;3956;50.558;9.678;2022-10-17T18:26:18;16.60;1.00
7822;DHT22;3956;50.558;9.678;2022-10-17T18:28:48;16.70;1.00
7822;DHT22;3956;50.558;9.678;2022-10-17T18:31:26;16.70;1.00
7822;DHT22;3956;50.558;9.678;2022-10-17T18:34:02;16.70;1.00
7822;DHT22;3956;50.558;9.678;2022-10-17T18:36:54;16.80;1.00
7822;DHT22;3956;50.558;9.678;2022-10-17T18:39:26;17.00;99.90
7822;DHT22;3956;50.558;9.678;2022-10-17T18:42:06;16.90;1.00
7822;DHT22;3956;50.558;9.678;2022-10-17T18:44:38;17.00;1.00
7822;DHT22;3956;50.558;9.678;2022-10-17T18:47:27;16.90;1.00
7822;DHT22;3956;50.558;9.678;2022-10-17T18:50:00;16.60;1.00